sensor_id;sensor_type;location;lat;lon;timestamp;temperature;humidity
2999;DHT22;1509;51.964;7.628;2024-02-23T00:00:01;6.50;99.90
2999;DHT22;1509;51.964;7.628;2024-02-23T00:02:31;6.30;99.90
2999;DHT22;1509;51.964;7.628;2024-02-23T00:04:56;6.10;99.90
2999;DHT22;1509;51.964;7.628;2024-02-23T00:07:22;5.90;99.90
2999;DHT22;1509;51.964;7.628;2024-02-23T00:09:48;5.70;99.90
2999;DHT22;1509;51.964;7.628;2024-02-23T00:12:13;5.50;99.90
2999;DHT22;1509;51.964;7.628;2024-02-23T00:14:39;5.30;99.90
2999;DHT22;1509;51.964;7.628;2024-02-23T00:17:05;5.20;99.90
2999;DHT22;1509;51.964;7.628;2024-02-23T00:19:31;5.20;99.90
2999;DHT22;1509;51.964;7.628;2024-02-23T00:21:57;5.20;99.90
2999;DHT22;1509;51.964;7.628;2024-02-23T00:24:25;5.20;99.90
2999;DHT22;1509;51.964;7.628;2024-02-23T00:26:50;5.10;99.90
2999;DHT22;1509;51.964;7.628;2024-02-23T00:29:17;5.10;99.90
2999;DHT22;1509;51.964;7.628;2024-02-23T00:31:43;5.00;99.90
2999;DHT22;1509;51.964;7.628;2024-02-23T00:34:10;5.30;99.90
2999;DHT22;1509;51.964;7.628;2024-02-23T00:36:39;5.10;99.90
2999;DHT22;1509;51.964;7.628;2024-02-23T00:39:04;5.00;99.90
2999;DHT22;1509;51.964;7.628;2024-02-23T00:41:30;4.90;99.90
2999;DHT22;1509;51.964;7.628;2024-02-23T00:43:56;4.80;99.90
2999;DHT22;1509;51.964;7.628;2024-02-23T00:46:21;4.70;99.90
2999;DHT22;1509;51.964;7.628;2024-02-23T00:48:47;4.60;99.90
2999;DHT22;1509;51.964;7.628;2024-02-23T00:51:12;4.60;99.90
2999;DHT22;1509;51.964;7.628;2024-02-23T00:53:38;4.70;99.90
2999;DHT22;1509;51.964;7.628;2024-02-23T00:56:04;4.60;99.90
2999;DHT22;1509;51.964;7.628;2024-02-23T00:58:29;4.50;99.90
2999;DHT22;1509;51.964;7.628;2024-02-23T01:00:55;4.50;99.90
2999;DHT22;1509;51.964;7.628;2024-02-23T01:03:21;4.50;99.90
2999;DHT22;1509;51.964;7.628;2024-02-23T01:05:47;4.50;99.90
2999;DHT22;1509;51.964;7.628;2024-02-23T01:08:13;4.40;99.90
2999;DHT22;1509;51.964;7.628;2024-02-23T01:10:38;4.40;99.90
2999;DHT22;1509;51.964;7.628;2024-02-23T01:13:04;4.40;99.90
2999;DHT22;1509;51.964;7.628;2024-02-23T01:15:30;4.40;99.90
2999;DHT22;1509;51.964;7.628;2024-02-23T01:17:56;4.40;99.90
2999;DHT22;1509;51.964;7.628;2024-02-23T01:20:22;4.40;99.90
2999;DHT22;1509;51.964;7.628;2024-02-23T01:22:47;4.50;99.90
2999;DHT22;1509;51.964;7.628;2024-02-23T01:25:13;4.70;99.90
2999;DHT22;1509;51.964;7.628;2024-02-23T01:27:41;4.50;99.90
2999;DHT22;1509;51.964;7.628;2024-02-23T01:30:07;4.50;99.90
2999;DHT22;1509;51.964;7.628;2024-02-23T01:32:33;4.50;99.90
2999;DHT22;1509;51.964;7.628;2024-02-23T01:34:59;4.60;99.90
2999;DHT22;1509;51.964;7.628;2024-02-23T01:37:24;4.60;99.90
2999;DHT22;1509;51.964;7.628;2024-02-23T01:39:50;4.60;99.90
2999;DHT22;1509;51.964;7.628;2024-02-23T01:42:15;4.60;99.90
2999;DHT22;1509;51.964;7.628;2024-02-23T01:44:41;4.60;99.90
2999;DHT22;1509;51.964;7.628;2024-02-23T01:47:07;4.60;99.90
2999;DHT22;1509;51.964;7.628;2024-02-23T01:49:33;4.60;99.90
2999;DHT22;1509;51.964;7.628;2024-02-23T01:52:00;4.60;99.90
2999;DHT22;1509;51.964;7.628;2024-02-23T01:54:26;4.60;99.90
2999;DHT22;1509;51.964;7.628;2024-02-23T01:56:54;4.70;99.90
2999;DHT22;1509;51.964;7.628;2024-02-23T01:59:22;4.70;99.90
2999;DHT22;1509;51.964;7.628;2024-02-23T02:01:48;4.70;99.90
2999;DHT22;1509;51.964;7.628;2024-02-23T02:04:17;4.70;99.90
2999;DHT22;1509;51.964;7.628;2024-02-23T02:06:42;4.60;99.90
2999;DHT22;1509;51.964;7.628;2024-02-23T02:09:08;4.80;99.90
2999;DHT22;1509;51.964;7.628;2024-02-23T02:11:34;4.90;99.90
2999;DHT22;1509;51.964;7.628;2024-02-23T02:13:59;4.90;99.90
2999;DHT22;1509;51.964;7.628;2024-02-23T02:16:25;5.00;99.90
2999;DHT22;1509;51.964;7.628;2024-02-23T02:18:50;5.00;99.90
2999;DHT22;1509;51.964;7.628;2024-02-23T02:21:16;5.00;99.90
2999;DHT22;1509;51.964;7.628;2024-02-23T02:23:42;5.10;99.90
2999;DHT22;1509;51.964;7.628;2024-02-23T02:26:08;5.10;99.90
2999;DHT22;1509;51.964;7.628;2024-02-23T02:28:33;5.20;99.90
2999;DHT22;1509;51.964;7.628;2024-02-23T02:30:59;5.20;99.90
2999;DHT22;1509;51.964;7.628;2024-02-23T02:33:25;5.20;99.90
2999;DHT22;1509;51.964;7.628;2024-02-23T02:35:50;5.20;99.90
2999;DHT22;1509;51.964;7.628;2024-02-23T02:38:16;5.30;99.90
2999;DHT22;1509;51.964;7.628;2024-02-23T02:40:42;5.30;99.90
2999;DHT22;1509;51.964;7.628;2024-02-23T02:43:08;5.30;99.90
2999;DHT22;1509;51.964;7.628;2024-02-23T02:45:37;5.40;99.90
2999;DHT22;1509;51.964;7.628;2024-02-23T02:48:10;5.40;99.90
2999;DHT22;1509;51.964;7.628;2024-02-23T02:50:36;5.50;99.90
2999;DHT22;1509;51.964;7.628;2024-02-23T02:53:01;5.50;99.90
2999;DHT22;1509;51.964;7.628;2024-02-23T02:55:27;5.50;99.90
2999;DHT22;1509;51.964;7.628;2024-02-23T02:57:52;5.60;99.90
2999;DHT22;1509;51.964;7.628;2024-02-23T03:00:18;5.60;99.90
2999;DHT22;1509;51.964;7.628;2024-02-23T03:02:43;5.60;99.90
2999;DHT22;1509;51.964;7.628;2024-02-23T03:05:09;5.70;99.90
2999;DHT22;1509;51.964;7.628;2024-02-23T03:07:35;5.70;99.90
2999;DHT22;1509;51.964;7.628;2024-02-23T03:10:00;5.70;99.90
2999;DHT22;1509;51.964;7.628;2024-02-23T03:12:26;5.70;99.90
2999;DHT22;1509;51.964;7.628;2024-02-23T03:14:51;5.70;99.90
2999;DHT22;1509;51.964;7.628;2024-02-23T03:17:17;5.70;99.90
2999;DHT22;1509;51.964;7.628;2024-02-23T03:19:43;5.80;99.90
2999;DHT22;1509;51.964;7.628;2024-02-23T03:22:08;5.80;99.90
2999;DHT22;1509;51.964;7.628;2024-02-23T03:24:34;5.90;99.90
2999;DHT22;1509;51.964;7.628;2024-02-23T03:27:00;5.80;99.90
2999;DHT22;1509;51.964;7.628;2024-02-23T03:29:25;5.90;99.90
2999;DHT22;1509;51.964;7.628;2024-02-23T03:31:57;5.80;99.90
2999;DHT22;1509;51.964;7.628;2024-02-23T03:34:23;5.70;99.90
2999;DHT22;1509;51.964;7.628;2024-02-23T03:36:49;5.70;99.90
2999;DHT22;1509;51.964;7.628;2024-02-23T03:39:14;5.60;99.90
2999;DHT22;1509;51.964;7.628;2024-02-23T03:41:40;5.60;99.90
2999;DHT22;1509;51.964;7.628;2024-02-23T03:44:06;5.60;99.90
2999;DHT22;1509;51.964;7.628;2024-02-23T03:46:32;5.60;99.90
2999;DHT22;1509;51.964;7.628;2024-02-23T03:48:57;5.60;99.90
2999;DHT22;1509;51.964;7.628;2024-02-23T03:51:23;5.60;99.90
2999;DHT22;1509;51.964;7.628;2024-02-23T03:53:49;5.60;99.90
2999;DHT22;1509;51.964;7.628;2024-02-23T03:56:15;5.60;99.90
2999;DHT22;1509;51.964;7.628;2024-02-23T03:58:41;5.50;99.90
2999;DHT22;1509;51.964;7.628;2024-02-23T04:01:06;5.50;99.90
2999;DHT22;1509;51.964;7.628;2024-02-23T04:03:32;5.60;99.90
2999;DHT22;1509;51.964;7.628;2024-02-23T04:05:57;5.50;99.90
2999;DHT22;1509;51.964;7.628;2024-02-23T04:08:23;5.40;99.90
2999;DHT22;1509;51.964;7.628;2024-02-23T04:10:49;5.50;99.90
2999;DHT22;1509;51.964;7.628;2024-02-23T04:13:16;5.50;99.90
2999;DHT22;1509;51.964;7.628;2024-02-23T04:15:43;5.50;99.90
2999;DHT22;1509;51.964;7.628;2024-02-23T04:18:09;5.60;99.90
2999;DHT22;1509;51.964;7.628;2024-02-23T04:20:35;5.60;99.90
2999;DHT22;1509;51.964;7.628;2024-02-23T04:23:00;5.60;99.90
2999;DHT22;1509;51.964;7.628;2024-02-23T04:25:26;5.70;99.90
2999;DHT22;1509;51.964;7.628;2024-02-23T04:27:52;5.90;99.90
2999;DHT22;1509;51.964;7.628;2024-02-23T04:30:17;5.50;99.90
2999;DHT22;1509;51.964;7.628;2024-02-23T04:32:43;5.60;99.90
2999;DHT22;1509;51.964;7.628;2024-02-23T04:35:10;5.60;99.90
2999;DHT22;1509;51.964;7.628;2024-02-23T04:37:35;5.60;99.90
2999;DHT22;1509;51.964;7.628;2024-02-23T04:40:01;5.50;99.90
2999;DHT22;1509;51.964;7.628;2024-02-23T04:42:27;5.60;99.90
2999;DHT22;1509;51.964;7.628;2024-02-23T04:44:53;5.60;99.90
2999;DHT22;1509;51.964;7.628;2024-02-23T04:47:20;5.60;99.90
2999;DHT22;1509;51.964;7.628;2024-02-23T04:49:46;5.60;99.90
2999;DHT22;1509;51.964;7.628;2024-02-23T04:52:11;5.60;99.90
2999;DHT22;1509;51.964;7.628;2024-02-23T04:54:37;5.60;99.90
2999;DHT22;1509;51.964;7.628;2024-02-23T04:57:03;5.60;99.90
2999;DHT22;1509;51.964;7.628;2024-02-23T04:59:28;5.60;99.90
2999;DHT22;1509;51.964;7.628;2024-02-23T05:01:55;5.60;99.90
2999;DHT22;1509;51.964;7.628;2024-02-23T05:04:21;5.60;99.90
2999;DHT22;1509;51.964;7.628;2024-02-23T05:06:46;5.60;99.90
2999;DHT22;1509;51.964;7.628;2024-02-23T05:09:13;5.70;99.90
2999;DHT22;1509;51.964;7.628;2024-02-23T05:11:38;5.80;99.90
2999;DHT22;1509;51.964;7.628;2024-02-23T05:14:04;5.60;99.90
2999;DHT22;1509;51.964;7.628;2024-02-23T05:16:30;5.60;99.90
2999;DHT22;1509;51.964;7.628;2024-02-23T05:18:55;5.60;99.90
2999;DHT22;1509;51.964;7.628;2024-02-23T05:21:21;5.70;99.90
2999;DHT22;1509;51.964;7.628;2024-02-23T05:23:46;5.60;99.90
2999;DHT22;1509;51.964;7.628;2024-02-23T05:26:12;5.60;99.90
2999;DHT22;1509;51.964;7.628;2024-02-23T05:28:38;5.60;99.90
2999;DHT22;1509;51.964;7.628;2024-02-23T05:31:04;5.60;99.90
2999;DHT22;1509;51.964;7.628;2024-02-23T05:33:30;5.60;99.90
2999;DHT22;1509;51.964;7.628;2024-02-23T05:35:55;5.60;99.90
2999;DHT22;1509;51.964;7.628;2024-02-23T05:38:21;5.70;99.90
2999;DHT22;1509;51.964;7.628;2024-02-23T05:40:47;5.60;99.90
2999;DHT22;1509;51.964;7.628;2024-02-23T05:43:14;5.60;99.90
2999;DHT22;1509;51.964;7.628;2024-02-23T05:45:40;5.60;99.90
2999;DHT22;1509;51.964;7.628;2024-02-23T05:48:06;5.60;99.90
2999;DHT22;1509;51.964;7.628;2024-02-23T05:50:32;5.60;99.90
2999;DHT22;1509;51.964;7.628;2024-02-23T05:52:57;5.60;99.90
2999;DHT22;1509;51.964;7.628;2024-02-23T05:55:23;5.50;99.90
2999;DHT22;1509;51.964;7.628;2024-02-23T05:57:49;5.60;99.90
2999;DHT22;1509;51.964;7.628;2024-02-23T06:00:16;5.50;99.90
2999;DHT22;1509;51.964;7.628;2024-02-23T06:02:44;5.50;99.90
2999;DHT22;1509;51.964;7.628;2024-02-23T06:05:12;5.70;99.90
2999;DHT22;1509;51.964;7.628;2024-02-23T06:07:38;5.50;99.90
2999;DHT22;1509;51.964;7.628;2024-02-23T06:10:04;5.50;99.90
2999;DHT22;1509;51.964;7.628;2024-02-23T06:12:30;5.30;99.90
2999;DHT22;1509;51.964;7.628;2024-02-23T06:14:56;5.80;99.90
2999;DHT22;1509;51.964;7.628;2024-02-23T06:17:22;5.60;99.90
2999;DHT22;1509;51.964;7.628;2024-02-23T06:19:48;5.60;99.90
2999;DHT22;1509;51.964;7.628;2024-02-23T06:22:14;5.60;99.90
2999;DHT22;1509;51.964;7.628;2024-02-23T06:24:42;5.60;99.90
2999;DHT22;1509;51.964;7.628;2024-02-23T06:27:08;5.60;99.90
2999;DHT22;1509;51.964;7.628;2024-02-23T06:29:34;5.60;99.90
2999;DHT22;1509;51.964;7.628;2024-02-23T06:31:59;5.60;99.90
2999;DHT22;1509;51.964;7.628;2024-02-23T06:34:26;5.60;99.90
2999;DHT22;1509;51.964;7.628;2024-02-23T06:36:52;5.60;99.90
2999;DHT22;1509;51.964;7.628;2024-02-23T06:39:18;5.60;99.90
2999;DHT22;1509;51.964;7.628;2024-02-23T06:41:43;5.60;99.90
2999;DHT22;1509;51.964;7.628;2024-02-23T06:44:09;5.50;99.90
2999;DHT22;1509;51.964;7.628;2024-02-23T06:46:35;5.50;99.90
2999;DHT22;1509;51.964;7.628;2024-02-23T06:49:00;5.50;99.90
2999;DHT22;1509;51.964;7.628;2024-02-23T06:51:26;5.50;99.90
2999;DHT22;1509;51.964;7.628;2024-02-23T06:53:51;5.50;99.90
2999;DHT22;1509;51.964;7.628;2024-02-23T06:56:17;5.50;99.90
2999;DHT22;1509;51.964;7.628;2024-02-23T06:58:43;5.50;99.90
2999;DHT22;1509;51.964;7.628;2024-02-23T07:01:08;5.50;99.90
2999;DHT22;1509;51.964;7.628;2024-02-23T07:03:38;5.60;99.90
2999;DHT22;1509;51.964;7.628;2024-02-23T07:06:04;5.50;99.90
2999;DHT22;1509;51.964;7.628;2024-02-23T07:08:30;5.50;99.90
2999;DHT22;1509;51.964;7.628;2024-02-23T07:10:55;5.60;99.90
2999;DHT22;1509;51.964;7.628;2024-02-23T07:13:21;5.60;99.90
2999;DHT22;1509;51.964;7.628;2024-02-23T07:15:47;5.60;99.90
2999;DHT22;1509;51.964;7.628;2024-02-23T07:18:12;5.60;99.90
2999;DHT22;1509;51.964;7.628;2024-02-23T07:20:38;5.60;99.90
2999;DHT22;1509;51.964;7.628;2024-02-23T07:23:04;5.60;99.90
2999;DHT22;1509;51.964;7.628;2024-02-23T07:25:30;5.60;99.90
2999;DHT22;1509;51.964;7.628;2024-02-23T07:27:56;5.60;99.90
2999;DHT22;1509;51.964;7.628;2024-02-23T07:30:22;5.90;99.90
2999;DHT22;1509;51.964;7.628;2024-02-23T07:32:48;5.70;99.90
2999;DHT22;1509;51.964;7.628;2024-02-23T07:35:13;5.70;99.90
2999;DHT22;1509;51.964;7.628;2024-02-23T07:37:39;5.70;99.90
2999;DHT22;1509;51.964;7.628;2024-02-23T07:40:05;5.70;99.90
2999;DHT22;1509;51.964;7.628;2024-02-23T07:42:32;5.80;99.90
2999;DHT22;1509;51.964;7.628;2024-02-23T07:44:58;5.80;99.90
2999;DHT22;1509;51.964;7.628;2024-02-23T07:47:24;5.80;99.90
2999;DHT22;1509;51.964;7.628;2024-02-23T07:49:51;5.80;99.90
2999;DHT22;1509;51.964;7.628;2024-02-23T07:52:17;5.90;99.90
2999;DHT22;1509;51.964;7.628;2024-02-23T07:54:46;5.90;99.90
2999;DHT22;1509;51.964;7.628;2024-02-23T07:57:11;5.90;99.90
2999;DHT22;1509;51.964;7.628;2024-02-23T07:59:38;6.10;99.90
2999;DHT22;1509;51.964;7.628;2024-02-23T08:02:07;6.00;99.90
2999;DHT22;1509;51.964;7.628;2024-02-23T08:04:32;6.30;99.90
2999;DHT22;1509;51.964;7.628;2024-02-23T08:06:58;6.10;99.90
2999;DHT22;1509;51.964;7.628;2024-02-23T08:09:24;6.00;99.90
2999;DHT22;1509;51.964;7.628;2024-02-23T08:11:49;6.60;99.90
2999;DHT22;1509;51.964;7.628;2024-02-23T08:14:16;7.60;99.90
2999;DHT22;1509;51.964;7.628;2024-02-23T08:16:42;8.10;99.90
2999;DHT22;1509;51.964;7.628;2024-02-23T08:19:07;8.00;99.90
2999;DHT22;1509;51.964;7.628;2024-02-23T08:21:33;8.00;99.90
2999;DHT22;1509;51.964;7.628;2024-02-23T08:23:59;7.70;99.90
2999;DHT22;1509;51.964;7.628;2024-02-23T08:26:24;7.40;99.90
2999;DHT22;1509;51.964;7.628;2024-02-23T08:28:50;7.10;99.90
2999;DHT22;1509;51.964;7.628;2024-02-23T08:31:16;7.00;99.90
2999;DHT22;1509;51.964;7.628;2024-02-23T08:33:42;6.90;99.90
2999;DHT22;1509;51.964;7.628;2024-02-23T08:36:07;6.80;99.90
2999;DHT22;1509;51.964;7.628;2024-02-23T08:38:33;6.80;99.90
2999;DHT22;1509;51.964;7.628;2024-02-23T08:40:59;6.70;99.90
2999;DHT22;1509;51.964;7.628;2024-02-23T08:43:29;6.90;99.90
2999;DHT22;1509;51.964;7.628;2024-02-23T08:45:55;6.80;99.90
2999;DHT22;1509;51.964;7.628;2024-02-23T08:48:21;6.70;99.90
2999;DHT22;1509;51.964;7.628;2024-02-23T08:50:46;6.80;99.90
2999;DHT22;1509;51.964;7.628;2024-02-23T08:53:12;6.80;99.90
2999;DHT22;1509;51.964;7.628;2024-02-23T08:55:38;6.80;99.90
2999;DHT22;1509;51.964;7.628;2024-02-23T08:58:04;6.80;99.90
2999;DHT22;1509;51.964;7.628;2024-02-23T09:00:33;6.80;99.90
2999;DHT22;1509;51.964;7.628;2024-02-23T09:02:59;6.70;99.90
2999;DHT22;1509;51.964;7.628;2024-02-23T09:05:25;6.70;99.90
2999;DHT22;1509;51.964;7.628;2024-02-23T09:07:51;6.60;99.90
2999;DHT22;1509;51.964;7.628;2024-02-23T09:10:16;6.70;99.90
2999;DHT22;1509;51.964;7.628;2024-02-23T09:12:43;6.70;99.90
2999;DHT22;1509;51.964;7.628;2024-02-23T09:15:11;6.80;99.90
2999;DHT22;1509;51.964;7.628;2024-02-23T09:17:37;6.90;99.90
2999;DHT22;1509;51.964;7.628;2024-02-23T09:20:03;6.90;99.90
2999;DHT22;1509;51.964;7.628;2024-02-23T09:22:28;6.90;99.90
2999;DHT22;1509;51.964;7.628;2024-02-23T09:24:54;7.00;99.90
2999;DHT22;1509;51.964;7.628;2024-02-23T09:27:21;6.90;99.90
2999;DHT22;1509;51.964;7.628;2024-02-23T09:29:47;7.10;99.90
2999;DHT22;1509;51.964;7.628;2024-02-23T09:32:13;7.20;99.90
2999;DHT22;1509;51.964;7.628;2024-02-23T09:34:38;7.40;99.90
2999;DHT22;1509;51.964;7.628;2024-02-23T09:37:04;7.40;99.90
2999;DHT22;1509;51.964;7.628;2024-02-23T09:39:30;7.60;99.90
2999;DHT22;1509;51.964;7.628;2024-02-23T09:41:56;7.30;99.90
2999;DHT22;1509;51.964;7.628;2024-02-23T09:44:28;7.20;99.90
2999;DHT22;1509;51.964;7.628;2024-02-23T09:46:58;7.30;99.90
2999;DHT22;1509;51.964;7.628;2024-02-23T09:49:25;7.20;99.90
2999;DHT22;1509;51.964;7.628;2024-02-23T09:51:50;7.30;99.90
2999;DHT22;1509;51.964;7.628;2024-02-23T09:54:17;7.10;99.90
2999;DHT22;1509;51.964;7.628;2024-02-23T09:56:43;7.10;99.90
2999;DHT22;1509;51.964;7.628;2024-02-23T09:59:09;7.10;99.90
2999;DHT22;1509;51.964;7.628;2024-02-23T10:01:34;7.00;99.90
2999;DHT22;1509;51.964;7.628;2024-02-23T10:04:02;7.10;99.90
2999;DHT22;1509;51.964;7.628;2024-02-23T10:06:30;7.10;99.90
2999;DHT22;1509;51.964;7.628;2024-02-23T10:08:55;7.30;99.90
2999;DHT22;1509;51.964;7.628;2024-02-23T10:11:21;7.10;99.90
2999;DHT22;1509;51.964;7.628;2024-02-23T10:13:48;7.10;99.90
2999;DHT22;1509;51.964;7.628;2024-02-23T10:16:22;7.10;99.90
2999;DHT22;1509;51.964;7.628;2024-02-23T10:18:48;7.30;99.90
2999;DHT22;1509;51.964;7.628;2024-02-23T10:21:17;7.30;99.90
2999;DHT22;1509;51.964;7.628;2024-02-23T10:23:47;7.30;99.90
2999;DHT22;1509;51.964;7.628;2024-02-23T10:26:13;7.30;99.90
2999;DHT22;1509;51.964;7.628;2024-02-23T10:28:39;7.30;99.90
2999;DHT22;1509;51.964;7.628;2024-02-23T10:31:07;7.50;99.90
2999;DHT22;1509;51.964;7.628;2024-02-23T10:33:34;7.30;99.90
2999;DHT22;1509;51.964;7.628;2024-02-23T10:36:01;7.30;99.90
2999;DHT22;1509;51.964;7.628;2024-02-23T10:38:32;7.50;99.90
2999;DHT22;1509;51.964;7.628;2024-02-23T10:40:58;7.50;99.90
2999;DHT22;1509;51.964;7.628;2024-02-23T10:43:33;7.30;99.90
2999;DHT22;1509;51.964;7.628;2024-02-23T10:45:59;7.30;99.90
2999;DHT22;1509;51.964;7.628;2024-02-23T10:48:28;7.40;99.90
2999;DHT22;1509;51.964;7.628;2024-02-23T10:50:55;7.50;99.90
2999;DHT22;1509;51.964;7.628;2024-02-23T10:53:23;7.30;99.90
2999;DHT22;1509;51.964;7.628;2024-02-23T10:55:53;7.50;99.90
2999;DHT22;1509;51.964;7.628;2024-02-23T10:58:21;7.60;99.90
2999;DHT22;1509;51.964;7.628;2024-02-23T11:00:47;7.60;99.90
2999;DHT22;1509;51.964;7.628;2024-02-23T11:03:14;7.60;99.90
2999;DHT22;1509;51.964;7.628;2024-02-23T11:05:40;7.60;99.90
2999;DHT22;1509;51.964;7.628;2024-02-23T11:08:06;7.60;99.90
2999;DHT22;1509;51.964;7.628;2024-02-23T11:10:41;7.60;99.90
2999;DHT22;1509;51.964;7.628;2024-02-23T11:13:08;7.60;99.90
2999;DHT22;1509;51.964;7.628;2024-02-23T11:15:33;7.60;99.90
2999;DHT22;1509;51.964;7.628;2024-02-23T11:18:30;7.50;99.90
2999;DHT22;1509;51.964;7.628;2024-02-23T11:20:58;7.70;99.90
2999;DHT22;1509;51.964;7.628;2024-02-23T11:23:24;7.70;99.90
2999;DHT22;1509;51.964;7.628;2024-02-23T11:26:19;7.80;99.90
2999;DHT22;1509;51.964;7.628;2024-02-23T11:28:49;7.70;99.90
2999;DHT22;1509;51.964;7.628;2024-02-23T11:31:19;7.90;99.90
2999;DHT22;1509;51.964;7.628;2024-02-23T11:33:52;8.00;99.90
2999;DHT22;1509;51.964;7.628;2024-02-23T11:36:32;8.20;99.90
2999;DHT22;1509;51.964;7.628;2024-02-23T11:38:59;8.40;99.90
2999;DHT22;1509;51.964;7.628;2024-02-23T11:41:26;8.20;99.90
2999;DHT22;1509;51.964;7.628;2024-02-23T11:43:53;8.30;99.90
2999;DHT22;1509;51.964;7.628;2024-02-23T11:46:19;8.40;99.90
2999;DHT22;1509;51.964;7.628;2024-02-23T11:48:45;8.50;99.90
2999;DHT22;1509;51.964;7.628;2024-02-23T11:51:20;8.40;99.90
2999;DHT22;1509;51.964;7.628;2024-02-23T11:53:47;8.70;99.90
2999;DHT22;1509;51.964;7.628;2024-02-23T11:56:13;8.50;99.90
2999;DHT22;1509;51.964;7.628;2024-02-23T11:58:40;8.50;99.90
2999;DHT22;1509;51.964;7.628;2024-02-23T12:01:06;8.70;99.90
2999;DHT22;1509;51.964;7.628;2024-02-23T12:03:32;8.50;99.90
2999;DHT22;1509;51.964;7.628;2024-02-23T12:06:02;8.50;99.90
2999;DHT22;1509;51.964;7.628;2024-02-23T12:08:30;8.40;99.90
2999;DHT22;1509;51.964;7.628;2024-02-23T12:10:56;8.60;99.90
2999;DHT22;1509;51.964;7.628;2024-02-23T12:13:23;8.70;99.90
2999;DHT22;1509;51.964;7.628;2024-02-23T12:15:51;8.70;99.90
2999;DHT22;1509;51.964;7.628;2024-02-23T12:18:18;8.50;99.90
2999;DHT22;1509;51.964;7.628;2024-02-23T12:20:47;8.60;99.90
2999;DHT22;1509;51.964;7.628;2024-02-23T12:23:13;8.60;99.90
2999;DHT22;1509;51.964;7.628;2024-02-23T12:25:51;8.60;99.90
2999;DHT22;1509;51.964;7.628;2024-02-23T12:28:18;8.80;99.90
2999;DHT22;1509;51.964;7.628;2024-02-23T12:30:44;8.60;99.90
2999;DHT22;1509;51.964;7.628;2024-02-23T12:33:15;8.60;99.90
2999;DHT22;1509;51.964;7.628;2024-02-23T12:35:41;8.80;99.90
2999;DHT22;1509;51.964;7.628;2024-02-23T12:38:09;8.60;99.90
2999;DHT22;1509;51.964;7.628;2024-02-23T12:40:34;8.60;99.90
2999;DHT22;1509;51.964;7.628;2024-02-23T12:43:00;8.30;99.90
2999;DHT22;1509;51.964;7.628;2024-02-23T12:45:26;8.40;99.90
2999;DHT22;1509;51.964;7.628;2024-02-23T12:47:51;8.30;99.90
2999;DHT22;1509;51.964;7.628;2024-02-23T12:50:17;8.40;99.90
2999;DHT22;1509;51.964;7.628;2024-02-23T12:52:43;8.50;99.90
2999;DHT22;1509;51.964;7.628;2024-02-23T12:55:08;8.50;99.90
2999;DHT22;1509;51.964;7.628;2024-02-23T12:57:34;8.60;99.90
2999;DHT22;1509;51.964;7.628;2024-02-23T13:00:00;8.50;99.90
2999;DHT22;1509;51.964;7.628;2024-02-23T13:02:25;8.60;99.90
2999;DHT22;1509;51.964;7.628;2024-02-23T13:04:51;8.60;99.90
2999;DHT22;1509;51.964;7.628;2024-02-23T13:07:16;8.50;99.90
2999;DHT22;1509;51.964;7.628;2024-02-23T13:09:42;8.60;99.90
2999;DHT22;1509;51.964;7.628;2024-02-23T13:12:08;8.70;99.90
2999;DHT22;1509;51.964;7.628;2024-02-23T13:14:34;8.80;99.90
2999;DHT22;1509;51.964;7.628;2024-02-23T13:16:59;8.70;99.90
2999;DHT22;1509;51.964;7.628;2024-02-23T13:19:25;8.40;99.90
2999;DHT22;1509;51.964;7.628;2024-02-23T13:21:51;8.50;99.90
2999;DHT22;1509;51.964;7.628;2024-02-23T13:24:17;8.40;99.90
2999;DHT22;1509;51.964;7.628;2024-02-23T13:26:42;8.50;99.90
2999;DHT22;1509;51.964;7.628;2024-02-23T13:29:08;8.40;99.90
2999;DHT22;1509;51.964;7.628;2024-02-23T13:31:33;8.40;99.90
2999;DHT22;1509;51.964;7.628;2024-02-23T13:33:59;8.40;99.90
2999;DHT22;1509;51.964;7.628;2024-02-23T13:36:24;8.40;99.90
2999;DHT22;1509;51.964;7.628;2024-02-23T13:38:50;8.40;99.90
2999;DHT22;1509;51.964;7.628;2024-02-23T13:41:17;8.30;99.90
2999;DHT22;1509;51.964;7.628;2024-02-23T13:43:43;8.30;99.90
2999;DHT22;1509;51.964;7.628;2024-02-23T13:46:09;8.30;99.90
2999;DHT22;1509;51.964;7.628;2024-02-23T13:48:36;8.30;99.90
2999;DHT22;1509;51.964;7.628;2024-02-23T13:51:01;8.30;99.90
2999;DHT22;1509;51.964;7.628;2024-02-23T13:53:30;8.20;99.90
2999;DHT22;1509;51.964;7.628;2024-02-23T13:55:56;8.20;99.90
2999;DHT22;1509;51.964;7.628;2024-02-23T13:58:22;8.30;99.90
2999;DHT22;1509;51.964;7.628;2024-02-23T14:00:47;8.30;99.90
2999;DHT22;1509;51.964;7.628;2024-02-23T14:03:17;8.00;99.90
2999;DHT22;1509;51.964;7.628;2024-02-23T14:05:48;8.40;99.90
2999;DHT22;1509;51.964;7.628;2024-02-23T14:08:14;8.10;99.90
2999;DHT22;1509;51.964;7.628;2024-02-23T14:10:39;8.20;99.90
2999;DHT22;1509;51.964;7.628;2024-02-23T14:13:06;8.30;99.90
2999;DHT22;1509;51.964;7.628;2024-02-23T14:15:32;8.20;99.90
2999;DHT22;1509;51.964;7.628;2024-02-23T14:17:58;8.40;99.90
2999;DHT22;1509;51.964;7.628;2024-02-23T14:20:26;8.30;99.90
2999;DHT22;1509;51.964;7.628;2024-02-23T14:22:53;8.20;99.90
2999;DHT22;1509;51.964;7.628;2024-02-23T14:25:19;8.00;99.90
2999;DHT22;1509;51.964;7.628;2024-02-23T14:27:45;8.10;99.90
2999;DHT22;1509;51.964;7.628;2024-02-23T14:30:13;8.10;99.90
2999;DHT22;1509;51.964;7.628;2024-02-23T14:32:38;8.10;99.90
2999;DHT22;1509;51.964;7.628;2024-02-23T14:35:07;8.10;99.90
2999;DHT22;1509;51.964;7.628;2024-02-23T14:37:33;7.80;99.90
2999;DHT22;1509;51.964;7.628;2024-02-23T14:39:59;7.70;99.90
2999;DHT22;1509;51.964;7.628;2024-02-23T14:42:24;7.20;99.90
2999;DHT22;1509;51.964;7.628;2024-02-23T14:44:50;7.10;99.90
2999;DHT22;1509;51.964;7.628;2024-02-23T14:47:16;7.10;99.90
2999;DHT22;1509;51.964;7.628;2024-02-23T14:49:41;7.00;99.90
2999;DHT22;1509;51.964;7.628;2024-02-23T14:52:07;7.10;99.90
2999;DHT22;1509;51.964;7.628;2024-02-23T14:54:33;7.10;99.90
2999;DHT22;1509;51.964;7.628;2024-02-23T14:56:59;7.10;99.90
2999;DHT22;1509;51.964;7.628;2024-02-23T14:59:25;7.10;99.90
2999;DHT22;1509;51.964;7.628;2024-02-23T15:01:50;7.30;99.90
2999;DHT22;1509;51.964;7.628;2024-02-23T15:04:16;7.10;99.90
2999;DHT22;1509;51.964;7.628;2024-02-23T15:06:42;7.30;99.90
2999;DHT22;1509;51.964;7.628;2024-02-23T15:09:07;7.10;99.90
2999;DHT22;1509;51.964;7.628;2024-02-23T15:11:33;7.30;99.90
2999;DHT22;1509;51.964;7.628;2024-02-23T15:13:59;7.30;99.90
2999;DHT22;1509;51.964;7.628;2024-02-23T15:16:27;7.30;99.90
2999;DHT22;1509;51.964;7.628;2024-02-23T15:18:53;7.40;99.90
2999;DHT22;1509;51.964;7.628;2024-02-23T15:21:19;7.40;99.90
2999;DHT22;1509;51.964;7.628;2024-02-23T15:23:45;7.50;99.90
2999;DHT22;1509;51.964;7.628;2024-02-23T15:26:11;7.50;99.90
2999;DHT22;1509;51.964;7.628;2024-02-23T15:28:39;7.60;99.90
2999;DHT22;1509;51.964;7.628;2024-02-23T15:31:05;7.60;99.90
2999;DHT22;1509;51.964;7.628;2024-02-23T15:33:31;7.70;99.90
2999;DHT22;1509;51.964;7.628;2024-02-23T15:35:57;7.90;99.90
2999;DHT22;1509;51.964;7.628;2024-02-23T15:38:22;7.80;99.90
2999;DHT22;1509;51.964;7.628;2024-02-23T15:40:48;7.90;99.90
2999;DHT22;1509;51.964;7.628;2024-02-23T15:43:14;7.90;99.90
2999;DHT22;1509;51.964;7.628;2024-02-23T15:45:46;8.00;99.90
2999;DHT22;1509;51.964;7.628;2024-02-23T15:48:11;8.00;99.90
2999;DHT22;1509;51.964;7.628;2024-02-23T15:50:38;8.10;99.90
2999;DHT22;1509;51.964;7.628;2024-02-23T15:53:04;8.10;99.90
2999;DHT22;1509;51.964;7.628;2024-02-23T15:55:31;8.10;99.90
2999;DHT22;1509;51.964;7.628;2024-02-23T15:57:57;7.90;99.90
2999;DHT22;1509;51.964;7.628;2024-02-23T16:00:23;8.10;99.90
2999;DHT22;1509;51.964;7.628;2024-02-23T16:02:49;8.40;99.90
2999;DHT22;1509;51.964;7.628;2024-02-23T16:05:15;8.10;99.90
2999;DHT22;1509;51.964;7.628;2024-02-23T16:07:40;8.20;99.90
2999;DHT22;1509;51.964;7.628;2024-02-23T16:10:06;8.20;99.90